Atascosa, Texas
Current Conditions -  °F | °C
As of 4:35 AM on Wednesday 22 Oct 2014 (Local Time) from KCVB Reporting Station
Clear Clear  
Wind Chill: 67°   Ceiling: Unl
Heat Index: 67°   Visibility: 10mi
Dew Point: 54°   Wind: 5mph
Humidity: 62%   Direction: 90°E
Pressure: 30.05"   Gusts: NA
Location:  29.28°N, 98.74°W
Report Text: KCVB 220935Z AUTO 09004KT 10SM CLR 20/12 A3005 RMK AO2 T01970123
Loading
Personal Weather Stations






























Interactive Weather Map
Tropical Storm Tracking
New forecast layout! Learn more

10-Day Weather Forecast

Advertisements
Track Severe Weather on mobile